Time,TemperatureF,DewpointF,PressureIn,WindDirection,WindDirectionDegrees,WindSpeedMPH,WindSpeedGustMPH,Humidity,HourlyPrecipIn,Conditions,Clouds,dailyrainin,SoftwareType,DateUTC
2013-04-30 00:00:00,55.6,54.0,30.02,NE,48,0.0,-999.0,94,-99.99,,,0.00,weatherlink.com 1.10,2013-04-30 05:00:00,
2013-04-30 00:15:00,55.5,54.0,30.02,NE,48,0.0,-999.0,94,-99.99,,,0.00,weatherlink.com 1.10,2013-04-30 05:15:00,
2013-04-30 00:30:00,55.0,53.0,30.02,NE,48,0.0,-999.0,94,-99.99,,,0.00,weatherlink.com 1.10,2013-04-30 05:30:00,
2013-04-30 00:45:00,54.8,53.0,30.02,NE,48,0.0,-999.0,94,-99.99,,,0.00,weatherlink.com 1.10,2013-04-30 05:45:00,
2013-04-30 01:00:00,54.9,54.0,30.02,NE,48,0.0,-999.0,95,-99.99,,,0.00,weatherlink.com 1.10,2013-04-30 06:00:00,
2013-04-30 01:15:00,54.8,53.0,30.01,NE,48,0.0,-999.0,95,-99.99,,,0.00,weatherlink.com 1.10,2013-04-30 06:15:00,
2013-04-30 01:30:00,54.1,53.0,30.01,NE,48,0.0,-999.0,95,-99.99,,,0.00,weatherlink.com 1.10,2013-04-30 06:30:00,
2013-04-30 01:45:00,54.1,53.0,30.01,NE,48,0.0,-999.0,95,-99.99,,,0.00,weatherlink.com 1.10,2013-04-30 06:45:00,
2013-04-30 02:00:00,53.7,52.0,30.00,NE,48,0.0,-999.0,95,-99.99,,,0.00,weatherlink.com 1.10,2013-04-30 07:00:00,
2013-04-30 02:15:00,53.4,52.0,30.00,NE,48,0.0,-999.0,95,-99.99,,,0.00,weatherlink.com 1.10,2013-04-30 07:15:00,
2013-04-30 02:30:00,53.2,52.0,30.01,NE,48,0.0,-999.0,95,-99.99,,,0.00,weatherlink.com 1.10,2013-04-30 07:30:00,
2013-04-30 02:45:00,53.0,52.0,30.01,NE,48,0.0,-999.0,96,-99.99,,,0.00,weatherlink.com 1.10,2013-04-30 07:45:00,
2013-04-30 03:00:00,53.0,52.0,30.01,NE,48,0.0,-999.0,96,-99.99,,,0.00,weatherlink.com 1.10,2013-04-30 08:00:00,
2013-04-30 03:15:00,52.4,51.0,30.02,NE,48,0.0,-999.0,96,-99.99,,,0.00,weatherlink.com 1.10,2013-04-30 08:15:00,
2013-04-30 03:30:00,52.4,51.0,30.02,NE,48,0.0,-999.0,96,-99.99,,,0.00,weatherlink.com 1.10,2013-04-30 08:30:00,
2013-04-30 03:45:00,52.2,51.0,30.02,NE,48,0.0,-999.0,96,-99.99,,,0.00,weatherlink.com 1.10,2013-04-30 08:45:00,
2013-04-30 04:00:00,52.1,51.0,30.03,NE,48,0.0,-999.0,96,-99.99,,,0.00,weatherlink.com 1.10,2013-04-30 09:00:00,
2013-04-30 04:15:00,52.0,51.0,30.03,NE,48,0.0,-999.0,96,-99.99,,,0.00,weatherlink.com 1.10,2013-04-30 09:15:00,
2013-04-30 04:30:00,51.4,50.0,30.03,NE,48,0.0,-999.0,96,-99.99,,,0.00,weatherlink.com 1.10,2013-04-30 09:30:00,
2013-04-30 04:45:00,51.3,50.0,30.03,NE,48,0.0,-999.0,96,-99.99,,,0.00,weatherlink.com 1.10,2013-04-30 09:45:00,
2013-04-30 05:00:00,51.4,50.0,30.04,NE,48,0.0,-999.0,96,-99.99,,,0.00,weatherlink.com 1.10,2013-04-30 10:00:00,
2013-04-30 05:15:00,50.9,50.0,30.04,NE,48,0.0,-999.0,96,-99.99,,,0.00,weatherlink.com 1.10,2013-04-30 10:15:00,
2013-04-30 05:30:00,51.0,50.0,30.04,NE,48,0.0,-999.0,97,-99.99,,,0.00,weatherlink.com 1.10,2013-04-30 10:30:00,
2013-04-30 05:45:00,50.8,50.0,30.04,NE,48,0.0,-999.0,96,-99.99,,,0.00,weatherlink.com 1.10,2013-04-30 10:45:00,
2013-04-30 06:01:00,50.5,49.0,30.05,NE,48,0.0,-999.0,96,-99.99,,,0.00,weatherlink.com 1.10,2013-04-30 11:01:00,
2013-04-30 06:16:00,50.2,49.0,30.06,NE,48,0.0,-999.0,97,-99.99,,,0.00,weatherlink.com 1.10,2013-04-30 11:16:00,
2013-04-30 06:31:00,50.7,50.0,30.07,NE,48,0.0,-999.0,97,-99.99,,,0.00,weatherlink.com 1.10,2013-04-30 11:31:00,
2013-04-30 06:46:00,51.7,51.0,30.07,NE,48,0.0,-999.0,97,-99.99,,,0.00,weatherlink.com 1.10,2013-04-30 11:46:00,
2013-04-30 07:01:00,53.4,53.0,30.08,NE,48,0.0,-999.0,98,-99.99,,,0.00,weatherlink.com 1.10,2013-04-30 12:01:00,
2013-04-30 07:16:00,54.7,54.0,30.08,NE,53,0.0,-999.0,97,-99.99,,,0.00,weatherlink.com 1.10,2013-04-30 12:16:00,
2013-04-30 07:31:00,56.7,56.0,30.08,NE,53,0.0,-999.0,97,-99.99,,,0.00,weatherlink.com 1.10,2013-04-30 12:31:00,
2013-04-30 07:46:00,58.4,56.0,30.09,East,93,0.0,-999.0,93,-99.99,,,0.00,weatherlink.com 1.10,2013-04-30 12:46:00,
2013-04-30 08:01:00,60.8,57.0,30.09,East,93,0.0,-999.0,88,-99.99,,,0.00,weatherlink.com 1.10,2013-04-30 13:01:00,
2013-04-30 08:16:00,61.9,58.0,30.09,East,94,0.0,-999.0,86,-99.99,,,0.00,weatherlink.com 1.10,2013-04-30 13:16:00,
2013-04-30 08:31:00,63.4,59.0,30.09,East,93,0.0,-999.0,84,-99.99,,,0.00,weatherlink.com 1.10,2013-04-30 13:31:00,
2013-04-30 08:46:00,65.2,59.0,30.09,ESE,103,0.0,-999.0,81,-99.99,,,0.00,weatherlink.com 1.10,2013-04-30 13:46:00,
2013-04-30 09:01:00,67.1,60.0,30.09,ESE,103,0.0,-999.0,78,-99.99,,,0.00,weatherlink.com 1.10,2013-04-30 14:01:00,
2013-04-30 09:16:00,68.7,59.0,30.09,ESE,123,0.0,-999.0,71,-99.99,,,0.00,weatherlink.com 1.10,2013-04-30 14:16:00,
2013-04-30 09:31:00,70.2,58.0,30.09,East,93,2.0,-999.0,66,-99.99,,,0.00,weatherlink.com 1.10,2013-04-30 14:31:00,
2013-04-30 09:46:00,71.3,58.0,30.09,ESE,114,1.0,-999.0,64,-99.99,,,0.00,weatherlink.com 1.10,2013-04-30 14:46:00,
2013-04-30 10:01:00,71.0,58.0,30.09,ESE,115,0.0,-999.0,64,-99.99,,,0.00,weatherlink.com 1.10,2013-04-30 15:01:00,
2013-04-30 10:16:00,71.9,58.0,30.09,SE,134,0.0,-999.0,61,-99.99,,,0.00,weatherlink.com 1.10,2013-04-30 15:16:00,
2013-04-30 10:31:00,71.1,57.0,30.09,SSW,208,3.0,-999.0,62,-99.99,,,0.00,weatherlink.com 1.10,2013-04-30 15:31:00,
2013-04-30 10:46:00,71.4,57.0,30.08,SSE,155,1.0,-999.0,61,-99.99,,,0.00,weatherlink.com 1.10,2013-04-30 15:46:00,
2013-04-30 11:01:00,72.5,56.0,30.08,East,81,0.0,-999.0,57,-99.99,,,0.00,weatherlink.com 1.10,2013-04-30 16:01:00,
2013-04-30 11:16:00,72.7,56.0,30.08,SSE,148,0.0,-999.0,56,-99.99,,,0.00,weatherlink.com 1.10,2013-04-30 16:16:00,
2013-04-30 11:31:00,72.8,56.0,30.07,SW,217,0.0,-999.0,56,-99.99,,,0.00,weatherlink.com 1.10,2013-04-30 16:31:00,
2013-04-30 11:46:00,73.3,55.0,30.07,South,186,0.0,-999.0,53,-99.99,,,0.00,weatherlink.com 1.10,2013-04-30 16:46:00,
2013-04-30 12:01:00,74.6,57.0,30.07,ESE,105,0.0,-999.0,54,-99.99,,,0.00,weatherlink.com 1.10,2013-04-30 17:01:00,
2013-04-30 12:16:00,74.5,53.0,30.07,SE,129,0.0,-999.0,47,-99.99,,,0.00,weatherlink.com 1.10,2013-04-30 17:16:00,
2013-04-30 12:31:00,74.7,55.0,30.07,ESE,118,0.0,-999.0,50,-99.99,,,0.00,weatherlink.com 1.10,2013-04-30 17:31:00,
2013-04-30 12:46:00,76.1,55.0,30.06,ESE,120,0.0,-999.0,48,-99.99,,,0.00,weatherlink.com 1.10,2013-04-30 17:46:00,
2013-04-30 13:01:00,76.3,57.0,30.06,SSE,167,0.0,-999.0,52,-99.99,,,0.00,weatherlink.com 1.10,2013-04-30 18:01:00,
2013-04-30 13:16:00,76.1,56.0,30.05,SSE,147,0.0,-999.0,50,-99.99,,,0.00,weatherlink.com 1.10,2013-04-30 18:16:00,
2013-04-30 13:31:00,76.2,56.0,30.06,ESE,119,0.0,-999.0,50,-99.99,,,0.00,weatherlink.com 1.10,2013-04-30 18:31:00,
2013-04-30 13:46:00,78.2,55.0,30.06,SSW,202,0.0,-999.0,45,-99.99,,,0.00,weatherlink.com 1.10,2013-04-30 18:46:00,
2013-04-30 14:01:00,77.7,58.0,30.06,SSW,201,3.0,-999.0,50,-99.99,,,0.00,weatherlink.com 1.10,2013-04-30 19:01:00,
2013-04-30 14:16:00,76.9,56.0,30.06,ESE,115,0.0,-999.0,49,-99.99,,,0.00,weatherlink.com 1.10,2013-04-30 19:16:00,
2013-04-30 14:31:00,78.5,55.0,30.05,SE,131,0.0,-999.0,44,-99.99,,,0.00,weatherlink.com 1.10,2013-04-30 19:31:00,
2013-04-30 14:46:00,78.8,53.0,30.05,ESE,117,0.0,-999.0,41,-99.99,,,0.00,weatherlink.com 1.10,2013-04-30 19:46:00,
2013-04-30 15:01:00,79.3,56.0,30.04,SSE,160,0.0,-999.0,45,-99.99,,,0.00,weatherlink.com 1.10,2013-04-30 20:01:00,
2013-04-30 15:16:00,79.3,54.0,30.03,ENE,65,0.0,-999.0,41,-99.99,,,0.00,weatherlink.com 1.10,2013-04-30 20:16:00,
2013-04-30 15:32:00,78.6,52.0,30.02,SE,131,0.0,-999.0,40,-99.99,,,0.00,weatherlink.com 1.10,2013-04-30 20:32:00,
2013-04-30 15:47:00,79.6,54.0,30.02,WSW,240,2.0,-999.0,41,-99.99,,,0.00,weatherlink.com 1.10,2013-04-30 20:47:00,
2013-04-30 16:02:00,78.1,53.0,30.02,SW,223,5.0,-999.0,42,-99.99,,,0.00,weatherlink.com 1.10,2013-04-30 21:02:00,
2013-04-30 16:17:00,78.5,53.0,30.02,SW,219,1.0,-999.0,42,-99.99,,,0.00,weatherlink.com 1.10,2013-04-30 21:17:00,
2013-04-30 16:32:00,79.2,55.0,30.03,SSW,205,0.0,-999.0,44,-99.99,,,0.00,weatherlink.com 1.10,2013-04-30 21:32:00,
2013-04-30 16:47:00,79.1,56.0,30.03,SSW,207,0.0,-999.0,45,-99.99,,,0.00,weatherlink.com 1.10,2013-04-30 21:47:00,
2013-04-30 17:02:00,79.2,57.0,30.03,SSE,148,0.0,-999.0,47,-99.99,,,0.00,weatherlink.com 1.10,2013-04-30 22:02:00,
2013-04-30 17:17:00,80.2,56.0,30.03,SE,135,0.0,-999.0,43,-99.99,,,0.00,weatherlink.com 1.10,2013-04-30 22:17:00,
2013-04-30 17:32:00,78.3,55.0,30.02,SSW,199,0.0,-999.0,44,-99.99,,,0.00,weatherlink.com 1.10,2013-04-30 22:32:00,
2013-04-30 17:47:00,78.5,56.0,30.02,SE,146,0.0,-999.0,46,-99.99,,,0.00,weatherlink.com 1.10,2013-04-30 22:47:00,
2013-04-30 18:02:00,77.6,58.0,30.02,SSE,147,0.0,-999.0,52,-99.99,,,0.00,weatherlink.com 1.10,2013-04-30 23:02:00,
2013-04-30 18:17:00,76.6,58.0,30.02,SSE,147,0.0,-999.0,53,-99.99,,,0.00,weatherlink.com 1.10,2013-04-30 23:17:00,
2013-04-30 18:32:00,75.9,60.0,30.02,SE,144,0.0,-999.0,59,-99.99,,,0.00,weatherlink.com 1.10,2013-04-30 23:32:00,
2013-04-30 18:47:00,74.5,61.0,30.02,SE,144,0.0,-999.0,64,-99.99,,,0.00,weatherlink.com 1.10,2013-04-30 23:47:00,
2013-04-30 19:02:00,73.0,62.0,30.03,South,186,0.0,-999.0,68,-99.99,,,0.00,weatherlink.com 1.10,2013-05-01 00:02:00,
2013-04-30 19:17:00,71.5,62.0,30.04,South,186,0.0,-999.0,71,-99.99,,,0.00,weatherlink.com 1.10,2013-05-01 00:17:00,
2013-04-30 19:32:00,69.9,60.0,30.04,South,186,0.0,-999.0,70,-99.99,,,0.00,weatherlink.com 1.10,2013-05-01 00:32:00,
2013-04-30 19:47:00,68.6,60.0,30.04,South,186,0.0,-999.0,75,-99.99,,,0.00,weatherlink.com 1.10,2013-05-01 00:47:00,
2013-04-30 20:02:00,66.8,59.0,30.05,South,186,0.0,-999.0,75,-99.99,,,0.00,weatherlink.com 1.10,2013-05-01 01:02:00,
2013-04-30 20:17:00,66.7,58.0,30.05,South,186,0.0,-999.0,74,-99.99,,,0.00,weatherlink.com 1.10,2013-05-01 01:17:00,
2013-04-30 20:32:00,66.2,59.0,30.05,South,186,0.0,-999.0,77,-99.99,,,0.00,weatherlink.com 1.10,2013-05-01 01:32:00,
2013-04-30 20:47:00,65.7,58.0,30.06,South,186,0.0,-999.0,77,-99.99,,,0.00,weatherlink.com 1.10,2013-05-01 01:47:00,
2013-04-30 21:02:00,65.5,58.0,30.06,South,186,0.0,-999.0,78,-99.99,,,0.00,weatherlink.com 1.10,2013-05-01 02:02:00,
2013-04-30 21:17:00,66.1,58.0,30.07,South,186,0.0,-999.0,76,-99.99,,,0.00,weatherlink.com 1.10,2013-05-01 02:17:00,
2013-04-30 21:32:00,65.8,59.0,30.07,South,186,0.0,-999.0,78,-99.99,,,0.00,weatherlink.com 1.10,2013-05-01 02:32:00,
2013-04-30 21:47:00,65.2,59.0,30.08,South,186,0.0,-999.0,80,-99.99,,,0.00,weatherlink.com 1.10,2013-05-01 02:47:00,
2013-04-30 22:02:00,65.1,59.0,30.08,South,186,0.0,-999.0,81,-99.99,,,0.00,weatherlink.com 1.10,2013-05-01 03:02:00,
2013-04-30 22:17:00,64.8,59.0,30.08,South,186,0.0,-999.0,81,-99.99,,,0.00,weatherlink.com 1.10,2013-05-01 03:17:00,
2013-04-30 22:32:00,65.6,59.0,30.08,ESE,119,0.0,-999.0,78,-99.99,,,0.00,weatherlink.com 1.10,2013-05-01 03:32:00,
2013-04-30 22:47:00,66.7,59.0,30.09,SE,142,0.0,-999.0,75,-99.99,,,0.00,weatherlink.com 1.10,2013-05-01 03:47:00,
2013-04-30 23:02:00,67.1,59.0,30.09,SSE,158,0.0,-999.0,75,-99.99,,,0.00,weatherlink.com 1.10,2013-05-01 04:02:00,
2013-04-30 23:17:00,66.8,59.0,30.10,SSE,152,0.0,-999.0,75,-99.99,,,0.00,weatherlink.com 1.10,2013-05-01 04:17:00,
2013-04-30 23:32:00,66.6,59.0,30.10,SE,126,0.0,-999.0,77,-99.99,,,0.00,weatherlink.com 1.10,2013-05-01 04:32:00,
2013-04-30 23:47:00,66.4,59.0,30.10,SE,144,0.0,-999.0,77,-99.99,,,0.00,weatherlink.com 1.10,2013-05-01 04:47:00,